This is the latest recevied weather packets stored in our database for station/object W4OCD. If no packets are shown the sender has not sent any weather packets the latest 1 day(s).
| Time | Temp. | Humidity | Pressure | Rain* | Wind** | Luminosity | Snow |
|---|---|---|---|---|---|---|---|
| 1778097193 | 22.78° C | 95% | 1013.1 hPa | 0 mm | - | 39 W/m² | - |
| 1778096586 | 22.78° C | 95% | 1013.7 hPa | 1.78 mm | - | 36 W/m² | - |
| 1778096284 | 22.78° C | 94% | 1013.6 hPa | 1.78 mm | - | 54 W/m² | - |
| 1778095676 | 23.33° C | 92% | 1014 hPa | 0 mm | - | 26 W/m² | - |
| 1778094464 | 23.89° C | 86% | 1013.7 hPa | 0 mm | - | 55 W/m² | - |
| 1778089917 | 25.56° C | 82% | 1014.4 hPa | 0 mm | - | 291 W/m² | - |
| 1778089311 | 24.44° C | 86% | 1014.3 hPa | 0 mm | - | 217 W/m² | - |
| 1778088706 | 24.44° C | 84% | 1014.3 hPa | 0 mm | - | 262 W/m² | - |
| 1778088403 | 23.89° C | 86% | 1014.4 hPa | 0 mm | - | 285 W/m² | - |
| 1778087797 | 23.89° C | 86% | 1014.9 hPa | 0 mm | - | 272 W/m² | - |
| 1778086883 | 23.89° C | 86% | 1014.8 hPa | 0 mm | - | 278 W/m² | - |
| 1778086277 | 23.89° C | 86% | 1014.6 hPa | 0 mm | - | 246 W/m² | - |
| 1778085975 | 23.89° C | 87% | 1014.7 hPa | 0 mm | - | 238 W/m² | - |
| 1778085672 | 23.89° C | 86% | 1014.7 hPa | 0 mm | - | 261 W/m² | - |
| 1778083240 | 23.33° C | 86% | 1015 hPa | 0 mm | - | 184 W/m² | - |
| 1778079716 | 22.78° C | 89% | 1015 hPa | 0 mm | - | 194 W/m² | - |
| 1778079413 | 22.78° C | 89% | 1015 hPa | 0 mm | - | 151 W/m² | - |
| 1778078504 | 22.22° C | 88% | 1014.9 hPa | 0 mm | - | 157 W/m² | - |
| 1778075782 | 21.11° C | 92% | 1015.2 hPa | 0 mm | - | 116 W/m² | - |
| 1778075478 | 20.56° C | 92% | 1015.5 hPa | 0 mm | - | 115 W/m² | - |
| 1778074265 | 20.56° C | 93% | 1015.3 hPa | 0 mm | - | 121 W/m² | - |
| 1778071843 | 20° C | 94% | 1015.1 hPa | 0 mm | - | 52 W/m² | - |
| 1778071238 | 19.44° C | 94% | 1015.2 hPa | 0 mm | - | 45 W/m² | - |
| 1778069120 | 18.89° C | 95% | 1014 hPa | 0 mm | - | 36 W/m² | - |
| 1778068817 | 18.89° C | 95% | 1014.2 hPa | 0 mm | - | 34 W/m² | - |
* Rain latest hour (hover to see other rain measurements)
** Current wind speed in m/s (hover to see current wind gust speed)